Time;durP1;ratioP1;P1;durP2;ratioP2;P2;SDS_P1;SDS_P2;PMS_P1;PMS_P2;Temp;Humidity;BMP_temperature;BMP_pressure;BME280_temperature;BME280_humidity;BME280_pressure;Samples;Min_cycle;Max_cycle;Signal;HPM_P1;HPM_P2
2022/10/28 00:00:46;;;;;;;10.07;6.82;;;13.20;99.90;;;;;;4969566;28;20047;-79
2022/10/28 00:03:12;;;;;;;12.02;7.22;;;13.20;99.90;;;;;;4983950;28;20122;-79
2022/10/28 00:05:37;;;;;;;8.43;6.22;;;13.10;99.90;;;;;;4986385;28;20134;-79
2022/10/28 00:08:03;;;;;;;8.18;6.50;;;13.10;99.90;;;;;;4986630;28;20520;-80
2022/10/28 00:10:29;;;;;;;8.15;7.15;;;13.10;99.90;;;;;;4985055;28;20452;-79
2022/10/28 00:12:54;;;;;;;10.13;6.05;;;13.10;99.90;;;;;;4986295;28;20497;-79
2022/10/28 00:15:20;;;;;;;9.23;6.68;;;13.00;99.90;;;;;;4985066;28;20105;-79
2022/10/28 00:17:46;;;;;;;10.23;7.10;;;13.10;99.90;;;;;;4985766;28;20057;-79
2022/10/28 00:20:11;;;;;;;9.13;6.93;;;13.00;99.90;;;;;;4985093;28;20233;-79
2022/10/28 00:22:37;;;;;;;13.07;7.03;;;13.10;99.90;;;;;;4986058;28;20110;-79
2022/10/28 00:25:03;;;;;;;10.60;8.35;;;13.10;99.90;;;;;;4986032;28;20043;-79
2022/10/28 00:27:28;;;;;;;12.23;7.75;;;13.10;99.90;;;;;;4984915;28;20038;-79
2022/10/28 00:29:54;;;;;;;15.45;9.20;;;13.10;99.90;;;;;;4985894;28;20042;-80
2022/10/28 00:32:20;;;;;;;12.32;8.27;;;13.20;99.90;;;;;;4984915;28;20070;-79
2022/10/28 00:34:46;;;;;;;20.98;9.38;;;13.20;99.90;;;;;;4985460;28;20058;-79
2022/10/28 00:37:12;;;;;;;8.57;7.70;;;13.20;99.90;;;;;;4986131;28;20034;-79
2022/10/28 00:39:37;;;;;;;11.05;8.55;;;13.10;99.90;;;;;;4985044;28;20058;-79
2022/10/28 00:42:03;;;;;;;10.45;7.25;;;13.20;99.90;;;;;;4985652;28;20132;-79
2022/10/28 00:44:47;;;;;;;9.55;6.97;;;13.20;99.90;;;;;;4985041;28;20046;-79
2022/10/28 00:47:35;;;;;;;11.70;7.45;;;13.10;99.90;;;;;;4987751;28;20046;-79
2022/10/28 00:50:06;;;;;;;8.45;6.57;;;13.10;99.90;;;;;;4972495;28;20051;-80
2022/10/28 00:52:32;;;;;;;10.85;7.95;;;13.10;99.90;;;;;;4988955;28;20042;-79
2022/10/28 00:55:01;;;;;;;12.27;7.78;;;13.10;99.90;;;;;;4989891;28;20104;-79
2022/10/28 00:57:32;;;;;;;13.32;7.70;;;13.00;99.90;;;;;;4988507;28;20057;-79
2022/10/28 00:59:59;;;;;;;14.33;8.90;;;13.00;99.90;;;;;;4988335;28;20042;-79
2022/10/28 01:02:25;;;;;;;11.18;7.30;;;13.00;99.90;;;;;;4989131;28;20345;-79
2022/10/28 01:04:51;;;;;;;8.30;7.05;;;13.00;99.90;;;;;;4988339;28;20050;-79
2022/10/28 01:07:17;;;;;;;13.60;7.25;;;12.90;99.90;;;;;;4989983;28;20062;-79
2022/10/28 01:09:43;;;;;;;15.55;7.30;;;12.80;99.90;;;;;;4989838;28;20042;-79
2022/10/28 01:12:47;;;;;;;9.20;7.22;;;12.90;99.90;;;;;;4988473;28;20074;-80
2022/10/28 01:15:15;;;;;;;10.80;8.38;;;12.80;99.90;;;;;;4987922;28;20050;-79
2022/10/28 01:18:18;;;;;;;13.68;7.70;;;12.80;99.90;;;;;;4987527;28;20050;-79
2022/10/28 01:20:55;;;;;;;8.98;7.18;;;12.70;99.90;;;;;;4989566;28;20054;-79
2022/10/28 01:24:02;;;;;;;8.98;7.10;;;12.70;99.90;;;;;;4989595;28;20046;-79
2022/10/28 01:26:44;;;;;;;8.73;6.53;;;12.70;99.90;;;;;;4950835;28;20050;-79
2022/10/28 01:29:39;;;;;;;18.40;7.85;;;12.80;99.90;;;;;;4970001;28;20156;-80
2022/10/28 01:32:29;;;;;;;12.95;6.60;;;12.70;99.90;;;;;;4967622;28;20135;-80
2022/10/28 01:35:17;;;;;;;8.02;6.80;;;12.70;99.90;;;;;;4969672;28;20480;-80
2022/10/28 01:37:55;;;;;;;8.70;7.15;;;12.70;99.90;;;;;;4982130;28;20046;-79
2022/10/28 01:40:27;;;;;;;16.98;7.10;;;12.70;99.90;;;;;;4984955;28;20058;-79
2022/10/28 01:43:10;;;;;;;7.15;6.32;;;12.70;99.90;;;;;;4969719;28;20447;-80
2022/10/28 01:45:35;;;;;;;8.77;7.25;;;12.70;99.90;;;;;;4969680;28;20039;-79
2022/10/28 01:48:11;;;;;;;12.57;6.93;;;12.70;99.90;;;;;;4968864;28;20058;-80
2022/10/28 01:50:49;;;;;;;12.10;7.75;;;12.70;99.90;;;;;;4981316;28;20061;-79
2022/10/28 01:53:21;;;;;;;13.40;7.85;;;12.70;99.90;;;;;;4989518;28;20054;-80
2022/10/28 01:55:50;;;;;;;9.00;7.65;;;12.70;99.90;;;;;;4989291;28;20050;-79
2022/10/28 01:58:20;;;;;;;8.23;7.38;;;12.60;99.90;;;;;;4987823;28;20052;-79
2022/10/28 02:00:47;;;;;;;10.45;7.43;;;12.60;99.90;;;;;;4989196;28;20050;-79
2022/10/28 02:03:15;;;;;;;11.32;7.05;;;12.60;99.90;;;;;;4987851;28;20057;-79
2022/10/28 02:05:49;;;;;;;7.50;6.72;;;12.60;99.90;;;;;;4988904;28;20408;-80
2022/10/28 02:08:18;;;;;;;10.65;7.60;;;12.60;99.90;;;;;;4989112;28;20046;-80
2022/10/28 02:11:13;;;;;;;9.77;7.03;;;12.60;99.90;;;;;;4988691;28;20057;-79
2022/10/28 02:14:00;;;;;;;9.15;6.70;;;12.60;99.90;;;;;;4988453;28;20050;-79
2022/10/28 02:16:56;;;;;;;8.90;6.85;;;12.50;99.90;;;;;;4970891;28;20046;-80
2022/10/28 02:19:29;;;;;;;8.73;6.80;;;12.50;99.90;;;;;;4971109;28;20133;-80
2022/10/28 02:22:13;;;;;;;9.00;7.72;;;12.50;99.90;;;;;;4988248;28;20093;-80
2022/10/28 02:24:53;;;;;;;12.93;7.68;;;12.50;99.90;;;;;;4987217;28;20042;-80
2022/10/28 02:27:29;;;;;;;16.05;7.55;;;12.50;99.90;;;;;;4968294;28;20497;-79
2022/10/28 02:30:19;;;;;;;10.30;7.28;;;12.50;99.90;;;;;;4967485;28;20047;-80
2022/10/28 02:32:49;;;;;;;9.48;8.60;;;12.50;99.90;;;;;;4966823;28;20051;-79
2022/10/28 02:35:21;;;;;;;12.82;7.72;;;12.50;99.90;;;;;;4967542;28;20494;-80
2022/10/28 02:37:49;;;;;;;13.43;8.25;;;12.50;99.90;;;;;;4968919;28;20043;-80
2022/10/28 02:40:20;;;;;;;14.60;9.30;;;12.50;99.90;;;;;;4971198;28;20069;-79
2022/10/28 02:42:58;;;;;;;7.65;6.85;;;12.50;99.90;;;;;;4987232;28;20073;-79
2022/10/28 02:45:28;;;;;;;10.30;7.57;;;12.50;99.90;;;;;;4987878;28;20050;-79
2022/10/28 02:47:58;;;;;;;10.68;7.15;;;12.50;99.90;;;;;;4985582;28;20124;-80
2022/10/28 02:50:31;;;;;;;12.27;8.43;;;12.50;99.90;;;;;;4988441;28;20112;-79
2022/10/28 02:52:59;;;;;;;12.25;7.75;;;12.50;99.90;;;;;;4987905;28;20046;-79
2022/10/28 02:55:31;;;;;;;8.90;7.50;;;12.50;99.90;;;;;;4986513;28;20052;-79
2022/10/28 02:57:57;;;;;;;10.68;8.48;;;12.50;99.90;;;;;;4987469;28;20475;-80
2022/10/28 03:00:23;;;;;;;9.30;8.18;;;12.50;99.90;;;;;;4986609;28;20104;-80
2022/10/28 03:02:49;;;;;;;13.93;8.50;;;12.50;99.90;;;;;;4987247;28;20096;-79
2022/10/28 03:05:16;;;;;;;10.32;9.23;;;12.50;99.90;;;;;;4988429;28;20093;-80
2022/10/28 03:07:42;;;;;;;12.88;9.65;;;12.40;99.90;;;;;;4987530;28;20049;-79
2022/10/28 03:10:08;;;;;;;9.82;7.50;;;12.40;99.90;;;;;;4986675;28;20054;-79
2022/10/28 03:12:34;;;;;;;15.45;8.15;;;12.40;99.90;;;;;;4987591;28;20073;-79
2022/10/28 03:15:00;;;;;;;14.93;9.90;;;12.40;99.90;;;;;;4986830;28;20417;-79
2022/10/28 03:17:26;;;;;;;11.50;8.55;;;12.40;99.90;;;;;;4986682;28;20057;-80
2022/10/28 03:19:51;;;;;;;9.85;7.93;;;12.40;99.90;;;;;;4987214;28;20042;-80
2022/10/28 03:22:17;;;;;;;15.57;9.10;;;12.40;99.90;;;;;;4987602;28;20089;-79
2022/10/28 03:24:42;;;;;;;11.10;8.30;;;12.40;99.90;;;;;;4985531;28;20042;-79
2022/10/28 03:27:08;;;;;;;15.35;8.23;;;12.40;99.90;;;;;;4967575;28;20043;-80
2022/10/28 03:29:34;;;;;;;9.40;8.30;;;12.40;99.90;;;;;;4966499;28;20051;-79
2022/10/28 03:31:59;;;;;;;9.10;6.97;;;12.40;99.90;;;;;;4974816;28;20035;-79
2022/10/28 03:34:25;;;;;;;10.55;7.18;;;12.40;99.90;;;;;;4987088;28;20046;-79
2022/10/28 03:36:50;;;;;;;9.90;8.57;;;12.30;99.90;;;;;;4985769;28;20119;-79
2022/10/28 03:39:16;;;;;;;12.52;8.77;;;12.30;99.90;;;;;;4987647;28;20536;-79
2022/10/28 03:41:41;;;;;;;10.52;7.35;;;12.30;99.90;;;;;;4986900;28;20042;-79
2022/10/28 03:44:07;;;;;;;9.55;7.68;;;12.30;99.90;;;;;;4985564;28;20073;-80
2022/10/28 03:46:32;;;;;;;10.73;7.82;;;12.30;99.90;;;;;;4986220;28;20038;-80
2022/10/28 03:48:58;;;;;;;10.63;8.38;;;12.20;99.90;;;;;;4986587;28;20497;-80
2022/10/28 03:51:24;;;;;;;11.00;7.40;;;12.30;99.90;;;;;;4987051;28;20401;-80
2022/10/28 03:53:49;;;;;;;19.02;7.25;;;12.20;99.90;;;;;;4985533;28;20046;-79
2022/10/28 03:56:15;;;;;;;9.32;7.03;;;12.20;99.90;;;;;;4987238;28;20042;-79
2022/10/28 03:58:40;;;;;;;10.90;8.20;;;12.20;99.90;;;;;;4986465;28;20053;-80
2022/10/28 04:01:06;;;;;;;9.48;7.85;;;12.20;99.90;;;;;;4986655;28;20070;-80
2022/10/28 04:03:31;;;;;;;11.98;8.18;;;12.20;99.90;;;;;;4984324;28;20042;-79
2022/10/28 04:05:57;;;;;;;12.68;7.32;;;12.20;99.90;;;;;;4985464;28;20045;-80
2022/10/28 04:08:22;;;;;;;10.30;7.65;;;12.20;99.90;;;;;;4986575;28;20050;-80
2022/10/28 04:10:48;;;;;;;8.23;7.22;;;12.10;99.90;;;;;;4987063;28;20038;-80
2022/10/28 04:13:14;;;;;;;10.70;8.57;;;12.10;99.90;;;;;;4985908;28;20401;-80
2022/10/28 04:15:40;;;;;;;11.05;7.78;;;12.10;99.90;;;;;;4984715;28;20500;-79
2022/10/28 04:18:06;;;;;;;11.15;8.20;;;12.10;99.90;;;;;;4984450;28;20107;-80
2022/10/28 04:20:32;;;;;;;13.55;9.15;;;12.10;99.90;;;;;;4985774;28;20734;-80
2022/10/28 04:22:57;;;;;;;14.35;7.72;;;12.10;99.90;;;;;;4985409;28;20049;-80
2022/10/28 04:25:24;;;;;;;14.27;8.60;;;12.10;99.90;;;;;;4982357;28;20039;-80
2022/10/28 04:27:50;;;;;;;14.23;9.27;;;12.10;99.90;;;;;;4964767;28;20046;-80
2022/10/28 04:30:16;;;;;;;9.15;7.57;;;12.10;99.90;;;;;;4966485;28;20663;-80
2022/10/28 04:32:43;;;;;;;11.88;8.55;;;12.10;99.90;;;;;;4965016;28;20047;-79
2022/10/28 04:35:09;;;;;;;14.35;10.07;;;12.10;99.90;;;;;;4964954;28;20125;-79
2022/10/28 04:37:35;;;;;;;9.60;8.07;;;12.10;99.90;;;;;;4966173;28;20418;-80
2022/10/28 04:40:01;;;;;;;12.77;8.90;;;12.10;99.90;;;;;;4964595;28;20105;-80
2022/10/28 04:42:27;;;;;;;13.93;8.88;;;12.10;99.90;;;;;;4965126;28;20054;-79
2022/10/28 04:44:52;;;;;;;16.67;8.20;;;12.10;99.90;;;;;;4966009;28;20433;-79
2022/10/28 04:47:18;;;;;;;10.88;8.57;;;12.00;99.90;;;;;;4965764;28;20085;-79
2022/10/28 04:49:44;;;;;;;12.05;8.68;;;12.00;99.90;;;;;;4975891;28;20047;-79
2022/10/28 04:52:09;;;;;;;7.97;6.38;;;12.00;99.90;;;;;;4983753;28;20482;-79
2022/10/28 04:54:35;;;;;;;9.73;8.05;;;12.00;99.90;;;;;;4983888;28;20034;-78
2022/10/28 04:57:01;;;;;;;12.50;8.70;;;12.00;99.90;;;;;;4971266;28;20035;-78
2022/10/28 04:59:27;;;;;;;11.32;8.13;;;12.00;99.90;;;;;;4979440;28;20064;-79
2022/10/28 05:01:52;;;;;;;13.38;8.57;;;12.00;99.90;;;;;;4975112;28;20050;-79
2022/10/28 05:04:18;;;;;;;10.38;7.70;;;12.00;99.90;;;;;;4973904;28;20054;-79
2022/10/28 05:06:43;;;;;;;14.50;8.38;;;12.00;99.90;;;;;;4979506;28;20097;-79
2022/10/28 05:09:09;;;;;;;14.90;8.43;;;12.00;99.90;;;;;;4963903;28;20093;-79
2022/10/28 05:11:34;;;;;;;8.73;7.82;;;12.00;99.90;;;;;;4965846;28;20600;-79
2022/10/28 05:14:00;;;;;;;10.57;9.43;;;12.00;99.90;;;;;;4972936;28;20050;-80
2022/10/28 05:16:25;;;;;;;13.13;9.18;;;12.00;99.90;;;;;;4936117;28;1052115;-80
2022/10/28 05:18:51;;;;;;;11.38;9.00;;;12.00;99.90;;;;;;4984144;28;20050;-80
2022/10/28 05:21:17;;;;;;;14.90;8.82;;;11.90;99.90;;;;;;4986378;28;20046;-80
2022/10/28 05:23:42;;;;;;;8.80;7.82;;;11.90;99.90;;;;;;4984204;28;20093;-79
2022/10/28 05:26:08;;;;;;;10.10;8.00;;;11.90;99.90;;;;;;4980943;28;20089;-79
2022/10/28 05:28:33;;;;;;;8.48;7.63;;;11.90;99.90;;;;;;4982082;28;20045;-80
2022/10/28 05:30:59;;;;;;;13.02;8.50;;;11.90;99.90;;;;;;4977282;28;20039;-82
2022/10/28 05:33:25;;;;;;;12.98;8.50;;;11.90;99.90;;;;;;4980734;28;20047;-81
2022/10/28 05:35:50;;;;;;;12.50;10.00;;;11.80;99.90;;;;;;4981147;28;20608;-81
2022/10/28 05:38:16;;;;;;;12.13;8.90;;;11.80;99.90;;;;;;4982570;28;20112;-80
2022/10/28 05:40:42;;;;;;;11.77;9.00;;;11.90;99.90;;;;;;4980764;28;20477;-80
2022/10/28 05:43:08;;;;;;;18.38;9.52;;;11.80;99.90;;;;;;4983104;28;20488;-80
2022/10/28 05:45:34;;;;;;;16.17;9.18;;;11.90;99.90;;;;;;4982460;28;20039;-84
2022/10/28 05:48:00;;;;;;;10.60;8.98;;;11.80;99.90;;;;;;4983710;28;20524;-80
2022/10/28 05:50:25;;;;;;;16.67;9.55;;;11.80;99.90;;;;;;4984148;28;20121;-78
2022/10/28 05:52:53;;;;;;;13.85;8.05;;;11.80;99.90;;;;;;4984861;28;20077;-80
2022/10/28 05:55:21;;;;;;;11.52;8.40;;;11.80;99.90;;;;;;4978545;28;20081;-79
2022/10/28 05:57:48;;;;;;;14.75;8.30;;;11.80;99.90;;;;;;4982278;28;20049;-82
2022/10/28 06:00:17;;;;;;;12.38;9.48;;;11.80;99.90;;;;;;4973877;28;20054;-86
2022/10/28 06:02:43;;;;;;;12.02;10.00;;;11.80;99.90;;;;;;4973152;28;20057;-80
2022/10/28 06:05:09;;;;;;;19.13;9.32;;;11.80;99.90;;;;;;4988220;28;20034;-81
2022/10/28 06:07:35;;;;;;;10.38;8.77;;;11.80;99.90;;;;;;4987979;28;20109;-82
2022/10/28 06:10:02;;;;;;;14.57;9.02;;;11.80;99.90;;;;;;4985584;28;20231;-81
2022/10/28 06:12:28;;;;;;;13.15;9.50;;;11.80;99.90;;;;;;4988069;28;20099;-85
2022/10/28 06:14:55;;;;;;;10.57;9.23;;;11.80;99.90;;;;;;4987748;28;20058;-80
2022/10/28 06:17:26;;;;;;;11.15;9.35;;;11.80;99.90;;;;;;4980334;28;20089;-93
2022/10/28 06:19:55;;;;;;;15.48;9.25;;;11.80;99.90;;;;;;4982684;28;20092;-84
2022/10/28 06:22:22;;;;;;;10.85;9.05;;;11.80;99.90;;;;;;4988090;28;20043;-82
2022/10/28 06:24:47;;;;;;;18.08;9.32;;;11.80;99.90;;;;;;4985713;28;20413;-81
2022/10/28 06:27:13;;;;;;;17.50;9.23;;;11.80;99.90;;;;;;4968788;28;20050;-84
2022/10/28 06:29:38;;;;;;;14.02;10.05;;;11.80;99.90;;;;;;4977248;28;20370;-85
2022/10/28 06:32:04;;;;;;;19.73;9.60;;;11.80;99.90;;;;;;4985680;28;20057;-81
2022/10/28 06:34:30;;;;;;;25.05;17.98;;;11.80;99.90;;;;;;4987881;28;20489;-86
2022/10/28 06:36:55;;;;;;;16.48;11.90;;;11.80;99.90;;;;;;4987468;28;20042;-87
2022/10/28 06:39:21;;;;;;;16.10;12.75;;;11.80;99.90;;;;;;4987928;28;20116;-87
2022/10/28 06:41:46;;;;;;;17.73;10.63;;;11.80;99.90;;;;;;4987041;28;20042;-86
2022/10/28 06:44:12;;;;;;;18.00;11.90;;;11.80;99.90;;;;;;4985847;28;20045;-81
2022/10/28 06:46:37;;;;;;;16.13;10.10;;;11.80;99.90;;;;;;4972641;28;20088;-86
2022/10/28 06:49:03;;;;;;;15.70;10.05;;;11.80;99.90;;;;;;4969008;28;20041;-85
2022/10/28 06:51:30;;;;;;;16.52;10.25;;;11.80;99.90;;;;;;4984883;28;20408;-79
2022/10/28 06:53:56;;;;;;;14.48;9.63;;;11.80;99.90;;;;;;4981920;28;20043;-80
2022/10/28 06:56:22;;;;;;;14.00;9.18;;;11.80;99.90;;;;;;4968217;28;20121;-80
2022/10/28 06:58:52;;;;;;;13.00;10.30;;;11.90;99.90;;;;;;4974845;28;20073;-80
2022/10/28 07:01:18;;;;;;;14.77;8.05;;;11.90;99.90;;;;;;4984413;28;20038;-80
2022/10/28 07:03:44;;;;;;;16.73;9.82;;;11.90;99.90;;;;;;4987306;28;20045;-80
2022/10/28 07:06:09;;;;;;;13.00;9.25;;;11.90;99.90;;;;;;4986957;28;20046;-80
2022/10/28 07:08:35;;;;;;;18.65;9.70;;;12.00;99.90;;;;;;4985637;28;20408;-80
2022/10/28 07:11:01;;;;;;;16.10;10.25;;;12.00;99.90;;;;;;4985616;28;20564;-81
2022/10/28 07:13:27;;;;;;;15.68;11.32;;;12.00;99.90;;;;;;4986514;28;20501;-80
2022/10/28 07:15:54;;;;;;;10.73;9.63;;;12.00;99.90;;;;;;4985188;28;20074;-81
2022/10/28 07:18:21;;;;;;;20.45;9.90;;;12.10;99.90;;;;;;4987273;28;20042;-82
2022/10/28 07:20:47;;;;;;;14.10;9.38;;;12.10;99.90;;;;;;4986343;28;20038;-80
2022/10/28 07:23:13;;;;;;;16.02;10.65;;;12.10;99.90;;;;;;4985148;28;20053;-89
2022/10/28 07:25:38;;;;;;;16.92;10.38;;;12.10;99.90;;;;;;4978841;28;20045;-84
2022/10/28 07:28:05;;;;;;;17.83;11.32;;;12.20;99.90;;;;;;4959676;28;20046;-89
2022/10/28 07:30:33;;;;;;;16.30;9.93;;;12.20;99.90;;;;;;4986149;28;20061;-84
2022/10/28 07:33:00;;;;;;;16.58;10.70;;;12.30;99.90;;;;;;4984846;28;20168;-92
2022/10/28 07:35:27;;;;;;;12.68;9.98;;;12.30;99.90;;;;;;4987387;28;20038;-88
2022/10/28 07:37:52;;;;;;;22.98;11.45;;;12.30;99.90;;;;;;4984540;28;20050;-86
2022/10/28 07:40:20;;;;;;;17.00;11.90;;;12.30;99.90;;;;;;4986794;28;20500;-86
2022/10/28 07:42:45;;;;;;;14.10;10.25;;;12.40;99.90;;;;;;4986156;28;20053;-82
2022/10/28 07:45:11;;;;;;;16.10;10.55;;;12.40;99.90;;;;;;4986725;28;20042;-80
2022/10/28 07:47:37;;;;;;;17.80;11.25;;;12.40;99.90;;;;;;4986024;28;20050;-89
2022/10/28 07:50:04;;;;;;;16.63;11.48;;;12.50;99.90;;;;;;4984772;28;20068;-82
2022/10/28 07:52:29;;;;;;;17.08;11.30;;;12.50;99.90;;;;;;4983870;28;20382;-86
2022/10/28 07:54:55;;;;;;;15.60;11.60;;;12.50;99.90;;;;;;4984884;28;20089;-86
2022/10/28 07:57:21;;;;;;;20.00;12.18;;;12.60;99.90;;;;;;4985637;28;20202;-81
2022/10/28 07:59:46;;;;;;;20.00;12.25;;;12.60;99.90;;;;;;4986772;28;20049;-82
2022/10/28 08:02:21;;;;;;;21.58;12.13;;;12.60;99.90;;;;;;4984938;28;20042;-87
2022/10/28 08:04:47;;;;;;;17.48;11.30;;;12.70;99.90;;;;;;4985871;28;20053;-83
2022/10/28 08:07:13;;;;;;;25.60;12.02;;;12.70;99.90;;;;;;4986068;28;20050;-85
2022/10/28 08:09:39;;;;;;;26.38;12.63;;;12.80;99.90;;;;;;4986188;28;20421;-88
2022/10/28 08:12:06;;;;;;;15.73;11.15;;;12.70;99.90;;;;;;4986169;28;20042;-90
2022/10/28 08:14:32;;;;;;;23.70;14.27;;;12.80;99.90;;;;;;4968671;28;20137;-84
2022/10/28 08:16:59;;;;;;;24.02;12.57;;;12.90;99.90;;;;;;4983536;28;20057;-92
2022/10/28 08:19:24;;;;;;;30.98;12.85;;;13.00;99.90;;;;;;4984853;28;20043;-87
2022/10/28 08:21:50;;;;;;;24.60;12.75;;;13.00;99.90;;;;;;4985621;28;20382;-88
2022/10/28 08:24:15;;;;;;;22.08;13.32;;;13.10;99.90;;;;;;4984287;28;20042;-83
2022/10/28 08:26:41;;;;;;;20.85;13.52;;;13.10;99.90;;;;;;4986101;28;20049;-82
2022/10/28 08:29:09;;;;;;;24.05;12.70;;;13.20;99.90;;;;;;4986024;28;20479;-82
2022/10/28 08:31:34;;;;;;;22.95;13.55;;;13.20;99.90;;;;;;4983145;28;20065;-85
2022/10/28 08:34:00;;;;;;;21.38;12.57;;;13.40;99.90;;;;;;4985593;28;20251;-84
2022/10/28 08:36:25;;;;;;;22.38;13.38;;;13.40;99.90;;;;;;4986282;28;20477;-85
2022/10/28 08:38:51;;;;;;;23.42;13.68;;;13.40;99.90;;;;;;4980008;28;20043;-83
2022/10/28 08:41:37;;;;;;;25.90;13.63;;;13.50;99.90;;;;;;4984447;28;20470;-81
2022/10/28 08:44:48;;;;;;;19.45;13.13;;;13.60;99.90;;;;;;4966133;28;20442;-80
2022/10/28 08:47:27;;;;;;;28.33;14.73;;;13.60;99.90;;;;;;4965186;28;20122;-79
2022/10/28 08:50:04;;;;;;;20.45;11.57;;;13.70;99.90;;;;;;4978464;28;20086;-81
2022/10/28 08:52:37;;;;;;;26.05;13.20;;;13.70;99.90;;;;;;4984226;28;20057;-78
2022/10/28 08:55:22;;;;;;;21.83;13.45;;;13.80;99.90;;;;;;4985152;28;20050;-79
2022/10/28 08:57:54;;;;;;;20.17;12.48;;;13.80;99.90;;;;;;4984540;28;20035;-80
2022/10/28 09:00:24;;;;;;;20.92;12.07;;;13.80;99.90;;;;;;4984105;28;20081;-80
2022/10/28 09:02:55;;;;;;;17.27;10.13;;;13.80;99.90;;;;;;4982159;28;20120;-80
2022/10/28 09:05:23;;;;;;;18.05;11.30;;;13.90;99.90;;;;;;4986052;28;20074;-81
2022/10/28 09:07:50;;;;;;;28.15;13.05;;;13.90;99.90;;;;;;4988170;28;20198;-80
2022/10/28 09:10:19;;;;;;;21.98;12.27;;;13.90;99.90;;;;;;4989655;28;20039;-80
2022/10/28 09:12:54;;;;;;;24.02;11.95;;;14.00;99.90;;;;;;4989539;28;20065;-80
2022/10/28 09:15:41;;;;;;;23.83;12.90;;;14.00;99.90;;;;;;4989600;28;20054;-79
2022/10/28 09:18:21;;;;;;;18.77;11.32;;;14.00;99.90;;;;;;4971304;28;20125;-80
2022/10/28 09:20:55;;;;;;;24.05;11.88;;;14.00;99.90;;;;;;4988407;28;20413;-80
2022/10/28 09:23:23;;;;;;;23.63;11.13;;;14.00;99.90;;;;;;4989444;28;20042;-81
2022/10/28 09:26:09;;;;;;;23.95;11.23;;;14.00;99.90;;;;;;4989520;28;20305;-81
2022/10/28 09:28:38;;;;;;;25.38;11.98;;;14.10;99.90;;;;;;4989440;28;20346;-81
2022/10/28 09:31:25;;;;;;;22.25;12.23;;;14.10;99.90;;;;;;4987882;28;20132;-80
2022/10/28 09:34:16;;;;;;;19.10;13.00;;;14.10;99.90;;;;;;4986936;28;20108;-81
2022/10/28 09:37:03;;;;;;;17.05;11.65;;;14.20;99.90;;;;;;4989156;28;20113;-80
2022/10/28 09:39:38;;;;;;;19.73;13.35;;;14.20;99.90;;;;;;4988608;28;20050;-80
2022/10/28 09:42:04;;;;;;;19.65;11.55;;;14.20;99.90;;;;;;4987375;28;20489;-81
2022/10/28 09:44:37;;;;;;;19.67;11.10;;;14.30;99.90;;;;;;4988785;28;20129;-80
2022/10/28 09:47:15;;;;;;;20.55;10.40;;;14.30;99.90;;;;;;4987513;28;20042;-80
2022/10/28 09:49:42;;;;;;;25.92;11.52;;;14.40;99.90;;;;;;4988174;28;20093;-77
2022/10/28 09:52:07;;;;;;;18.08;11.07;;;14.40;99.90;;;;;;4988642;28;20078;-80
2022/10/28 09:54:43;;;;;;;16.65;10.50;;;14.50;99.90;;;;;;4988168;28;20070;-78
2022/10/28 09:57:09;;;;;;;19.38;11.38;;;14.50;99.90;;;;;;4987097;28;20042;-81
2022/10/28 09:59:35;;;;;;;15.15;11.23;;;14.50;99.90;;;;;;4986897;28;20046;-80
2022/10/28 10:02:02;;;;;;;16.63;11.18;;;14.60;99.90;;;;;;4986302;28;20050;-80
2022/10/28 10:04:30;;;;;;;27.40;11.75;;;14.60;99.90;;;;;;4988312;28;20047;-79
2022/10/28 10:07:04;;;;;;;19.15;11.68;;;14.70;99.90;;;;;;4988234;28;20046;-80
2022/10/28 10:09:32;;;;;;;16.55;10.57;;;14.70;99.90;;;;;;4988291;28;20049;-78
2022/10/28 10:12:11;;;;;;;18.65;9.90;;;14.70;99.90;;;;;;4988155;28;20050;-80
2022/10/28 10:14:47;;;;;;;18.90;11.45;;;14.80;99.90;;;;;;4988333;28;20061;-80
2022/10/28 10:17:24;;;;;;;18.20;10.48;;;14.80;99.90;;;;;;4986819;28;20054;-80
2022/10/28 10:20:04;;;;;;;14.77;10.27;;;14.80;99.90;;;;;;4986799;28;20078;-80
2022/10/28 10:22:35;;;;;;;17.42;10.48;;;14.90;99.90;;;;;;4988506;28;20042;-81
2022/10/28 10:25:17;;;;;;;22.90;11.82;;;15.00;99.90;;;;;;4983901;28;20041;-80
2022/10/28 10:27:53;;;;;;;15.48;10.75;;;15.00;99.90;;;;;;4969254;28;20039;-80
2022/10/28 10:30:44;;;;;;;19.85;11.85;;;15.10;99.90;;;;;;4979259;28;20042;-80
2022/10/28 10:33:23;;;;;;;15.77;9.73;;;15.10;99.90;;;;;;4987404;28;20145;-78
2022/10/28 10:36:03;;;;;;;15.07;10.15;;;15.10;99.90;;;;;;4988498;28;20382;-79
2022/10/28 10:38:30;;;;;;;26.05;10.48;;;15.10;99.90;;;;;;4987311;28;20073;-80
2022/10/28 10:40:56;;;;;;;18.73;8.32;;;15.20;99.90;;;;;;4987360;28;20066;-80
2022/10/28 10:43:32;;;;;;;19.25;8.70;;;15.20;99.90;;;;;;4988342;28;20046;-80
2022/10/28 10:45:57;;;;;;;18.90;10.02;;;15.20;99.90;;;;;;4986634;28;20405;-80
2022/10/28 10:48:23;;;;;;;23.65;10.32;;;15.30;99.90;;;;;;4988043;28;20046;-80
2022/10/28 10:50:49;;;;;;;16.90;9.27;;;15.40;99.90;;;;;;4987674;28;20047;-78
2022/10/28 10:53:24;;;;;;;18.10;9.63;;;15.50;99.90;;;;;;4973396;28;20050;-80
2022/10/28 10:56:00;;;;;;;19.15;11.23;;;15.60;99.90;;;;;;4977082;28;20046;-80
2022/10/28 10:58:29;;;;;;;18.27;9.50;;;15.60;99.90;;;;;;4987366;28;20035;-80
2022/10/28 11:00:58;;;;;;;16.85;8.13;;;15.70;99.90;;;;;;4985358;28;20042;-80
2022/10/28 11:03:35;;;;;;;14.60;8.88;;;15.80;99.90;;;;;;4987909;28;20030;-79
2022/10/28 11:06:02;;;;;;;9.40;7.95;;;15.90;99.90;;;;;;4987042;28;20109;-80
2022/10/28 11:08:39;;;;;;;14.30;7.78;;;15.90;99.90;;;;;;4974096;28;20047;-80
2022/10/28 11:11:20;;;;;;;11.70;8.13;;;15.90;99.90;;;;;;4966303;28;20051;-80
2022/10/28 11:13:47;;;;;;;15.88;6.65;;;16.00;99.90;;;;;;4968143;28;20082;-82
2022/10/28 11:16:21;;;;;;;14.18;8.07;;;16.00;99.90;;;;;;4978423;28;20058;-80
2022/10/28 11:18:50;;;;;;;13.15;7.95;;;16.10;99.90;;;;;;4986049;28;20054;-81
2022/10/28 11:21:43;;;;;;;10.38;6.80;;;16.10;99.90;;;;;;4987261;28;20039;-81
2022/10/28 11:24:45;;;;;;;16.77;8.10;;;16.10;99.90;;;;;;4986725;28;20042;-82
2022/10/28 11:27:44;;;;;;;12.23;7.35;;;16.20;99.90;;;;;;4985525;28;20055;-82
2022/10/28 11:30:14;;;;;;;12.77;8.88;;;16.20;99.90;;;;;;4985128;28;20051;-81
2022/10/28 11:32:51;;;;;;;12.70;7.57;;;16.20;99.90;;;;;;4986808;28;20134;-82
2022/10/28 11:35:34;;;;;;;20.73;8.75;;;16.30;99.90;;;;;;4985398;28;20105;-81
2022/10/28 11:38:33;;;;;;;13.75;7.80;;;16.30;99.90;;;;;;4986474;28;20042;-81
2022/10/28 11:41:01;;;;;;;15.82;7.95;;;16.30;99.90;;;;;;4985991;28;20126;-80
2022/10/28 11:43:36;;;;;;;12.40;7.25;;;16.40;99.90;;;;;;4986671;28;20485;-82
2022/10/28 11:46:08;;;;;;;12.50;7.75;;;16.40;99.90;;;;;;4985769;28;20045;-82
2022/10/28 11:48:40;;;;;;;;;;;16.40;99.90;;;;;;4987182;28;20178;-78
2022/10/28 11:51:32;;;;;;;16.52;8.18;;;16.40;99.90;;;;;;4986362;28;19976;-82
2022/10/28 11:54:41;;;;;;;19.60;7.20;;;16.50;99.90;;;;;;4985475;28;20161;-82
2022/10/28 11:57:15;;;;;;;8.07;6.55;;;16.50;99.90;;;;;;4944578;29;20565;-82
2022/10/28 12:00:04;;;;;;;15.40;7.53;;;16.60;99.90;;;;;;4946865;28;20150;-82
2022/10/28 12:02:42;;;;;;;17.02;6.85;;;16.60;99.90;;;;;;4960099;28;20062;-82
2022/10/28 12:05:23;;;;;;;11.55;7.30;;;16.60;99.90;;;;;;4966613;28;20134;-81
2022/10/28 12:08:24;;;;;;;10.63;7.35;;;16.60;99.90;;;;;;4967885;28;20397;-80
2022/10/28 12:10:49;;;;;;;8.35;5.75;;;16.70;99.90;;;;;;4978341;28;20073;-80
2022/10/28 12:13:37;;;;;;;21.58;6.95;;;16.70;99.90;;;;;;4968563;28;20058;-82
2022/10/28 12:16:21;;;;;;;22.08;6.82;;;16.70;99.90;;;;;;4970143;28;20130;-84
2022/10/28 12:18:59;;;;;;;13.75;7.97;;;16.70;99.90;;;;;;4966365;28;20510;-84
2022/10/28 12:21:43;;;;;;;8.82;6.07;;;16.70;99.90;;;;;;4976427;28;20057;-78
2022/10/28 12:24:14;;;;;;;7.97;5.32;;;16.80;99.90;;;;;;4985193;28;20134;-81
2022/10/28 12:26:45;;;;;;;11.57;6.20;;;16.80;99.90;;;;;;4985278;28;20490;-79
2022/10/28 12:29:22;;;;;;;9.68;7.13;;;16.80;99.90;;;;;;4985565;28;20121;-82
2022/10/28 12:31:54;;;;;;;12.68;6.75;;;16.90;99.90;;;;;;4970617;28;20394;-84
2022/10/28 12:34:27;;;;;;;12.25;5.80;;;16.90;99.90;;;;;;4981343;28;20110;-81
2022/10/28 12:37:01;;;;;;;11.02;6.05;;;16.90;99.90;;;;;;4983589;28;20580;-86
2022/10/28 12:39:35;;;;;;;14.15;6.45;;;16.90;99.90;;;;;;4977552;28;20073;-85
2022/10/28 12:42:15;;;;;;;11.00;6.13;;;16.90;99.90;;;;;;4981457;28;20113;-84
2022/10/28 12:44:42;;;;;;;12.07;6.85;;;17.00;99.90;;;;;;4978165;28;20129;-85
2022/10/28 12:47:27;;;;;;;11.05;6.85;;;17.00;99.90;;;;;;4971818;28;20509;-83
2022/10/28 12:50:22;;;;;;;11.25;5.35;;;17.00;99.90;;;;;;4975149;28;20031;-85
2022/10/28 12:52:56;;;;;;;7.75;5.78;;;17.00;99.90;;;;;;4980122;28;20128;-83
2022/10/28 12:55:47;;;;;;;14.50;7.53;;;17.00;99.90;;;;;;4985397;28;20396;-84